createdAt,value
2018-07-28T00:00:57.070Z,0
2018-07-28T00:02:05.729Z,0
2018-07-28T00:03:14.378Z,0
2018-07-28T00:04:23.040Z,0
2018-07-28T00:05:31.680Z,0
2018-07-28T00:06:40.593Z,0
2018-07-28T00:07:49.512Z,0
2018-07-28T00:08:58.174Z,0
2018-07-28T00:10:06.824Z,0
2018-07-28T00:11:15.472Z,0
2018-07-28T00:12:24.121Z,0
2018-07-28T00:13:33.037Z,0
2018-07-28T00:14:41.705Z,0
2018-07-28T00:15:50.354Z,0
2018-07-28T00:16:59.545Z,0
2018-07-28T00:18:08.187Z,0
2018-07-28T00:19:16.846Z,0
2018-07-28T00:20:25.496Z,0
2018-07-28T00:21:34.414Z,0
2018-07-28T00:22:43.056Z,0
2018-07-28T00:23:51.716Z,0
2018-07-28T00:25:00.366Z,0
2018-07-28T00:26:09.018Z,0
2018-07-28T00:27:17.664Z,0
2018-07-28T00:28:26.587Z,0
2018-07-28T00:29:35.241Z,0
2018-07-28T00:30:44.154Z,0
2018-07-28T00:31:52.809Z,0
2018-07-28T00:33:01.455Z,0
2018-07-28T00:34:10.108Z,0
2018-07-28T00:35:18.756Z,0
2018-07-28T00:36:27.412Z,0
2018-07-28T00:37:36.060Z,0
2018-07-28T00:38:44.710Z,0
2018-07-28T00:39:53.360Z,0
2018-07-28T00:41:02.280Z,0
2018-07-28T00:42:10.932Z,0
2018-07-28T00:43:19.581Z,0
2018-07-28T00:44:28.231Z,0
2018-07-28T00:45:36.892Z,0
2018-07-28T00:46:45.812Z,0
2018-07-28T00:47:54.467Z,0
2018-07-28T00:49:03.114Z,0
2018-07-28T00:50:11.763Z,0
2018-07-28T00:51:20.420Z,0
2018-07-28T00:52:29.069Z,0
2018-07-28T00:53:37.721Z,0
2018-07-28T00:54:46.365Z,0
2018-07-28T00:55:55.021Z,0
2018-07-28T00:57:03.687Z,0
2018-07-28T00:58:12.341Z,0
2018-07-28T00:59:20.989Z,0
2018-07-28T01:00:29.644Z,0
2018-07-28T01:01:38.294Z,0
2018-07-28T01:02:46.945Z,0
2018-07-28T01:03:55.856Z,0
2018-07-28T01:05:05.045Z,0
2018-07-28T01:06:13.701Z,0
2018-07-28T01:07:22.354Z,0
2018-07-28T01:08:31.007Z,0
2018-07-28T01:09:39.915Z,0
2018-07-28T01:10:48.568Z,0
2018-07-28T01:11:57.219Z,0
2018-07-28T01:13:05.874Z,0
2018-07-28T01:14:14.519Z,0
2018-07-28T01:15:23.172Z,0
2018-07-28T01:16:31.822Z,0
2018-07-28T01:17:40.476Z,0
2018-07-28T01:18:49.125Z,0
2018-07-28T01:19:57.778Z,0
2018-07-28T01:21:06.422Z,0
2018-07-28T01:22:15.078Z,0
2018-07-28T01:23:23.727Z,0
2018-07-28T01:24:32.378Z,0
2018-07-28T01:25:41.026Z,0
2018-07-28T01:26:49.674Z,0
2018-07-28T01:27:58.329Z,0
2018-07-28T01:29:06.981Z,0
2018-07-28T01:30:15.631Z,0
2018-07-28T01:31:24.295Z,0
2018-07-28T01:32:32.940Z,0
2018-07-28T01:33:41.590Z,0
2018-07-28T01:34:50.240Z,0
2018-07-28T01:35:58.896Z,0
2018-07-28T01:37:07.540Z,0
2018-07-28T01:38:16.456Z,0
2018-07-28T01:39:25.111Z,0
2018-07-28T01:40:33.762Z,0
2018-07-28T01:41:42.410Z,0
2018-07-28T01:42:51.059Z,0
2018-07-28T01:43:59.973Z,0
2018-07-28T01:45:08.622Z,0
2018-07-28T01:46:17.278Z,0
2018-07-28T01:47:25.927Z,0
2018-07-28T01:48:34.578Z,0
2018-07-28T01:49:43.230Z,0
2018-07-28T01:50:51.880Z,0
2018-07-28T01:52:00.534Z,0
2018-07-28T01:53:09.186Z,0
2018-07-28T01:54:17.833Z,0
2018-07-28T01:55:26.488Z,0
2018-07-28T01:56:35.137Z,0
2018-07-28T01:57:43.790Z,0
2018-07-28T01:58:52.699Z,0
2018-07-28T02:00:01.356Z,0
2018-07-28T02:01:10.271Z,0
2018-07-28T02:02:18.922Z,0
2018-07-28T02:03:27.576Z,0
2018-07-28T02:04:36.227Z,0
2018-07-28T02:05:45.142Z,0
2018-07-28T02:06:53.792Z,0
2018-07-28T02:08:02.712Z,0
2018-07-28T02:09:11.360Z,0
2018-07-28T02:10:20.010Z,0
2018-07-28T02:11:28.660Z,0
2018-07-28T02:12:37.315Z,0
2018-07-28T02:13:45.961Z,0
2018-07-28T02:14:54.614Z,0
2018-07-28T02:16:03.264Z,0
2018-07-28T02:17:12.185Z,0
2018-07-28T02:18:20.834Z,0
2018-07-28T02:19:29.484Z,0
2018-07-28T02:20:38.402Z,0
2018-07-28T02:21:47.051Z,0
2018-07-28T02:22:55.709Z,0
2018-07-28T02:24:04.358Z,0
2018-07-28T02:25:13.012Z,0
2018-07-28T02:26:21.661Z,0
2018-07-28T02:27:30.321Z,0
2018-07-28T02:28:38.967Z,0
2018-07-28T02:29:47.625Z,0
2018-07-28T02:30:56.798Z,0
2018-07-28T02:32:05.459Z,0
2018-07-28T02:33:14.109Z,0
2018-07-28T02:34:22.766Z,0
2018-07-28T02:35:31.933Z,0
2018-07-28T02:36:40.850Z,0
2018-07-28T02:37:49.786Z,0
2018-07-28T02:38:58.709Z,0
2018-07-28T02:40:07.365Z,0
2018-07-28T02:41:16.018Z,0
2018-07-28T02:42:24.683Z,0
2018-07-28T02:43:33.345Z,0
2018-07-28T02:44:42.264Z,0
2018-07-28T02:45:51.170Z,0
2018-07-28T02:46:59.824Z,0
2018-07-28T02:48:08.750Z,0
2018-07-28T02:49:17.406Z,0
2018-07-28T02:50:26.049Z,0
2018-07-28T02:51:34.702Z,0
2018-07-28T02:52:43.351Z,0
2018-07-28T02:53:52.285Z,0
2018-07-28T02:55:01.722Z,0
2018-07-28T02:56:10.377Z,0
2018-07-28T02:57:19.287Z,0
2018-07-28T02:58:28.209Z,0
2018-07-28T02:59:36.880Z,0
2018-07-28T03:00:45.794Z,0
2018-07-28T03:01:54.449Z,0
2018-07-28T03:03:03.365Z,0
2018-07-28T03:04:12.024Z,0
2018-07-28T03:05:20.934Z,0
2018-07-28T03:06:29.862Z,0
2018-07-28T03:07:38.785Z,0
2018-07-28T03:08:47.713Z,0
2018-07-28T03:09:56.633Z,0
2018-07-28T03:11:05.550Z,0
2018-07-28T03:12:14.200Z,0
2018-07-28T03:13:22.852Z,0
2018-07-28T03:14:31.513Z,0
2018-07-28T03:15:40.446Z,0
2018-07-28T03:16:49.093Z,0
2018-07-28T03:17:58.002Z,0
2018-07-28T03:19:06.667Z,0
2018-07-28T03:20:15.312Z,0
2018-07-28T03:21:23.975Z,0
2018-07-28T03:22:32.873Z,0
2018-07-28T03:23:41.530Z,0
2018-07-28T03:24:50.701Z,0
2018-07-28T03:25:59.361Z,0
2018-07-28T03:27:08.283Z,0
2018-07-28T03:28:16.939Z,0
2018-07-28T03:29:25.591Z,0
2018-07-28T03:30:34.247Z,0
2018-07-28T03:31:43.163Z,0
2018-07-28T03:32:51.810Z,0
2018-07-28T03:34:00.459Z,0
2018-07-28T03:35:09.106Z,0
2018-07-28T03:36:17.760Z,0
2018-07-28T03:37:26.410Z,0
2018-07-28T03:38:35.062Z,0
2018-07-28T03:39:43.707Z,0
2018-07-28T03:40:52.363Z,5
2018-07-28T03:42:01.014Z,5
2018-07-28T03:43:09.663Z,5
2018-07-28T03:44:18.311Z,5
2018-07-28T03:45:27.225Z,5
2018-07-28T03:46:36.133Z,5
2018-07-28T03:47:44.785Z,5
2018-07-28T03:48:53.429Z,5
2018-07-28T03:50:02.079Z,5
2018-07-28T03:51:10.992Z,5
2018-07-28T03:52:19.646Z,5
2018-07-28T03:53:28.297Z,10
2018-07-28T03:54:36.941Z,10
2018-07-28T03:55:45.593Z,10
2018-07-28T03:56:54.240Z,10
2018-07-28T03:58:03.171Z,10
2018-07-28T03:59:12.085Z,10
2018-07-28T04:00:20.730Z,10
2018-07-28T04:01:29.640Z,10
2018-07-28T04:02:38.294Z,15
2018-07-28T04:03:47.208Z,15
2018-07-28T04:04:56.124Z,15
2018-07-28T04:06:04.771Z,15
2018-07-28T04:07:13.427Z,15
2018-07-28T04:08:22.337Z,15
2018-07-28T04:09:31.003Z,15
2018-07-28T04:10:39.645Z,15
2018-07-28T04:11:48.293Z,20
2018-07-28T04:12:56.949Z,20
2018-07-28T04:14:05.595Z,20
2018-07-28T04:15:14.520Z,20
2018-07-28T04:16:23.168Z,25
2018-07-28T04:17:31.821Z,25
2018-07-28T04:18:40.474Z,25
2018-07-28T04:19:49.126Z,25
2018-07-28T04:20:57.769Z,25
2018-07-28T04:22:06.427Z,30
2018-07-28T04:23:15.072Z,30
2018-07-28T04:24:23.724Z,30
2018-07-28T04:25:32.628Z,30
2018-07-28T04:26:41.277Z,30
2018-07-28T04:27:49.934Z,35
2018-07-28T04:28:58.850Z,35
2018-07-28T04:30:07.503Z,40
2018-07-28T04:31:16.400Z,40
2018-07-28T04:32:25.055Z,40
2018-07-28T04:33:33.698Z,45
2018-07-28T04:34:42.356Z,40
2018-07-28T04:35:51.259Z,40
2018-07-28T04:36:59.940Z,40
2018-07-28T04:38:09.091Z,40
2018-07-28T04:39:17.751Z,40
2018-07-28T04:40:26.394Z,40
2018-07-28T04:41:35.321Z,40
2018-07-28T04:42:44.229Z,40
2018-07-28T04:43:52.952Z,40
2018-07-28T04:45:01.533Z,40
2018-07-28T04:46:10.177Z,40
2018-07-28T04:47:18.825Z,40
2018-07-28T04:48:27.472Z,40
2018-07-28T04:49:36.132Z,40
2018-07-28T04:50:45.038Z,40
2018-07-28T04:51:53.694Z,40
2018-07-28T04:53:02.337Z,45
2018-07-28T04:54:11.258Z,50
2018-07-28T04:55:19.897Z,50
2018-07-28T04:56:28.551Z,55
2018-07-28T04:57:37.455Z,55
2018-07-28T04:58:46.115Z,55
2018-07-28T04:59:54.764Z,55
2018-07-28T05:01:03.415Z,60
2018-07-28T05:02:12.056Z,60
2018-07-28T05:03:20.707Z,60
2018-07-28T05:04:29.627Z,50
2018-07-28T05:05:38.283Z,35
2018-07-28T05:06:46.931Z,35
2018-07-28T05:07:55.573Z,35
2018-07-28T05:09:04.229Z,35
2018-07-28T05:10:13.144Z,35
2018-07-28T05:11:22.063Z,35
2018-07-28T05:12:30.703Z,35
2018-07-28T05:13:39.359Z,35
2018-07-28T05:14:48.005Z,40
2018-07-28T05:15:56.699Z,45
2018-07-28T05:17:05.308Z,45
2018-07-28T05:18:13.960Z,45
2018-07-28T05:19:22.607Z,45
2018-07-28T05:20:31.269Z,45
2018-07-28T05:21:40.177Z,40
2018-07-28T05:22:48.822Z,40
2018-07-28T05:23:58.094Z,35
2018-07-28T05:25:06.999Z,35
2018-07-28T05:26:15.640Z,40
2018-07-28T05:27:24.294Z,40
2018-07-28T05:28:32.938Z,40
2018-07-28T05:29:41.676Z,45
2018-07-28T05:30:50.234Z,45
2018-07-28T05:31:58.889Z,50
2018-07-28T05:33:07.540Z,50
2018-07-28T05:34:16.199Z,50
2018-07-28T05:35:24.839Z,50
2018-07-28T05:36:33.494Z,50
2018-07-28T05:37:42.417Z,55
2018-07-28T05:38:51.368Z,60
2018-07-28T05:40:00.516Z,65
2018-07-28T05:41:09.165Z,65
2018-07-28T05:42:17.813Z,70
2018-07-28T05:43:26.461Z,65
2018-07-28T05:44:35.120Z,65
2018-07-28T05:45:43.766Z,65
2018-07-28T05:46:52.418Z,70
2018-07-28T05:48:01.059Z,75
2018-07-28T05:49:09.981Z,75
2018-07-28T05:50:18.626Z,80
2018-07-28T05:51:27.281Z,85
2018-07-28T05:52:35.918Z,95
2018-07-28T05:53:44.576Z,95
2018-07-28T05:54:53.222Z,100
2018-07-28T05:56:01.877Z,130
2018-07-28T05:57:10.517Z,135
2018-07-28T05:58:19.178Z,145
2018-07-28T05:59:27.829Z,145
2018-07-28T06:00:36.481Z,150
2018-07-28T06:01:45.132Z,150
2018-07-28T06:02:54.116Z,155
2018-07-28T06:04:02.771Z,155
2018-07-28T06:05:11.422Z,150
2018-07-28T06:06:20.082Z,150
2018-07-28T06:07:28.724Z,150
2018-07-28T06:08:37.380Z,150
2018-07-28T06:09:46.282Z,150
2018-07-28T06:10:54.946Z,150
2018-07-28T06:12:03.581Z,150
2018-07-28T06:13:12.233Z,150
2018-07-28T06:14:20.882Z,155
2018-07-28T06:15:29.545Z,155
2018-07-28T06:16:38.197Z,155
2018-07-28T06:17:47.102Z,155
2018-07-28T06:18:55.750Z,155
2018-07-28T06:20:04.662Z,155
2018-07-28T06:21:13.322Z,155
2018-07-28T06:22:22.235Z,155
2018-07-28T06:23:30.883Z,155
2018-07-28T06:24:39.531Z,155
2018-07-28T06:25:48.189Z,155
2018-07-28T06:26:56.837Z,155
2018-07-28T06:28:05.488Z,155
2018-07-28T06:29:14.407Z,160
2018-07-28T06:30:23.061Z,160
2018-07-28T06:31:32.092Z,160
2018-07-28T06:32:40.684Z,165
2018-07-28T06:33:49.331Z,160
2018-07-28T06:34:57.983Z,160
2018-07-28T06:36:06.636Z,160
2018-07-28T06:37:15.287Z,160
2018-07-28T06:38:23.941Z,165
2018-07-28T06:39:32.636Z,165
2018-07-28T06:40:41.242Z,165
2018-07-28T06:41:49.892Z,165
2018-07-28T06:42:58.550Z,165
2018-07-28T06:44:07.194Z,165
2018-07-28T06:45:15.845Z,165
2018-07-28T06:46:24.497Z,165
2018-07-28T06:47:33.154Z,165
2018-07-28T06:48:41.802Z,170
2018-07-28T06:49:50.453Z,170
2018-07-28T06:50:59.102Z,165
2018-07-28T06:52:07.762Z,165
2018-07-28T06:53:16.409Z,165
2018-07-28T06:54:25.327Z,170
2018-07-28T06:55:33.985Z,170
2018-07-28T06:56:42.900Z,170
2018-07-28T06:57:51.556Z,170
2018-07-28T06:59:00.208Z,170
2018-07-28T07:00:08.861Z,170
2018-07-28T07:01:17.505Z,175
2018-07-28T07:02:26.161Z,175
2018-07-28T07:03:35.082Z,175
2018-07-28T07:04:44.074Z,175
2018-07-28T07:05:52.714Z,175
2018-07-28T07:07:01.376Z,175
2018-07-28T07:08:10.024Z,175
2018-07-28T07:09:18.677Z,175
2018-07-28T07:10:27.325Z,175
2018-07-28T07:11:36.001Z,175
2018-07-28T07:12:44.630Z,175
2018-07-28T07:13:53.284Z,180
2018-07-28T07:15:01.943Z,180
2018-07-28T07:16:10.594Z,185
2018-07-28T07:17:19.510Z,185
2018-07-28T07:18:28.162Z,190
2018-07-28T07:19:36.818Z,190
2018-07-28T07:20:45.737Z,190
2018-07-28T07:21:54.647Z,185
2018-07-28T07:23:03.303Z,165
2018-07-28T07:24:11.947Z,165
2018-07-28T07:25:20.869Z,160
2018-07-28T07:26:29.518Z,170
2018-07-28T07:27:38.173Z,170
2018-07-28T07:28:46.817Z,165
2018-07-28T07:29:55.469Z,165
2018-07-28T07:31:04.126Z,170
2018-07-28T07:32:12.779Z,165
2018-07-28T07:33:21.431Z,175
2018-07-28T07:34:30.073Z,225
2018-07-28T07:35:38.731Z,240
2018-07-28T07:36:47.380Z,245
2018-07-28T07:37:56.304Z,240
2018-07-28T07:39:04.955Z,235
2018-07-28T07:40:13.875Z,185
2018-07-28T07:41:22.526Z,165
2018-07-28T07:42:31.189Z,225
2018-07-28T07:43:39.828Z,250
2018-07-28T07:44:48.484Z,270
2018-07-28T07:45:57.397Z,255
2018-07-28T07:47:06.070Z,225
2018-07-28T07:48:14.711Z,250
2018-07-28T07:49:23.358Z,250
2018-07-28T07:50:32.011Z,240
2018-07-28T07:51:40.659Z,230
2018-07-28T07:52:49.319Z,230
2018-07-28T07:53:58.021Z,245
2018-07-28T07:55:06.624Z,260
2018-07-28T07:56:15.266Z,275
2018-07-28T07:57:23.932Z,285
2018-07-28T07:58:32.576Z,280
2018-07-28T07:59:41.238Z,290
2018-07-28T08:00:49.878Z,310
2018-07-28T08:01:58.805Z,320
2018-07-28T08:03:07.455Z,330
2018-07-28T08:04:16.110Z,335
2018-07-28T08:05:24.753Z,350
2018-07-28T08:06:33.481Z,360
2018-07-28T08:07:42.610Z,350
2018-07-28T08:08:51.265Z,350
2018-07-28T08:09:59.924Z,345
2018-07-28T08:11:08.573Z,335
2018-07-28T08:12:17.488Z,320
2018-07-28T08:13:26.140Z,315
2018-07-28T08:14:34.803Z,330
2018-07-28T08:15:43.449Z,335
2018-07-28T08:16:52.104Z,280
2018-07-28T08:18:00.752Z,275
2018-07-28T08:19:09.412Z,275
2018-07-28T08:20:18.062Z,275
2018-07-28T08:21:26.716Z,270
2018-07-28T08:22:35.369Z,270
2018-07-28T08:23:44.288Z,280
2018-07-28T08:24:53.203Z,285
2018-07-28T08:26:02.117Z,285
2018-07-28T08:27:10.769Z,305
2018-07-28T08:28:19.684Z,305
2018-07-28T08:29:28.346Z,305
2018-07-28T08:30:36.997Z,325
2018-07-28T08:31:45.649Z,315
2018-07-28T08:32:54.561Z,310
2018-07-28T08:34:03.494Z,300
2018-07-28T08:35:12.143Z,290
2018-07-28T08:36:20.796Z,280
2018-07-28T08:37:29.444Z,265
2018-07-28T08:38:38.101Z,245
2018-07-28T08:39:46.751Z,230
2018-07-28T08:40:55.407Z,220
2018-07-28T08:42:04.058Z,210
2018-07-28T08:43:12.717Z,200
2018-07-28T08:44:21.369Z,200
2018-07-28T08:45:30.026Z,195
2018-07-28T08:46:38.681Z,195
2018-07-28T08:47:47.358Z,200
2018-07-28T08:48:56.108Z,190
2018-07-28T08:50:04.641Z,185
2018-07-28T08:51:13.296Z,175
2018-07-28T08:52:21.944Z,165
2018-07-28T08:53:30.599Z,155
2018-07-28T08:54:39.276Z,145
2018-07-28T08:55:47.912Z,130
2018-07-28T08:56:56.563Z,115
2018-07-28T08:58:05.217Z,105
2018-07-28T08:59:13.875Z,90
2018-07-28T09:00:22.536Z,75
2018-07-28T09:01:31.189Z,70
2018-07-28T09:02:40.109Z,65
2018-07-28T09:03:48.759Z,65
2018-07-28T09:04:57.410Z,65
2018-07-28T09:06:06.464Z,70
2018-07-28T09:07:15.115Z,80
2018-07-28T09:08:23.768Z,90
2018-07-28T09:09:32.679Z,100
2018-07-28T09:10:41.368Z,115
2018-07-28T09:11:49.990Z,125
2018-07-28T09:12:58.644Z,135
2018-07-28T09:14:07.285Z,140
2018-07-28T09:15:15.943Z,150
2018-07-28T09:16:24.617Z,165
2018-07-28T09:17:33.247Z,170
2018-07-28T09:18:41.909Z,180
2018-07-28T09:19:50.558Z,185
2018-07-28T09:20:59.212Z,180
2018-07-28T09:22:07.858Z,170
2018-07-28T09:23:16.535Z,165
2018-07-28T09:24:25.169Z,165
2018-07-28T09:25:33.822Z,170
2018-07-28T09:26:42.473Z,180
2018-07-28T09:27:51.396Z,205
2018-07-28T09:29:00.054Z,210
2018-07-28T09:30:08.973Z,215
2018-07-28T09:31:17.618Z,210
2018-07-28T09:32:26.531Z,205
2018-07-28T09:33:35.187Z,195
2018-07-28T09:34:43.838Z,185
2018-07-28T09:35:52.767Z,165
2018-07-28T09:37:01.442Z,160
2018-07-28T09:38:10.072Z,170
2018-07-28T09:39:18.991Z,185
2018-07-28T09:40:27.648Z,190
2018-07-28T09:41:36.302Z,190
2018-07-28T09:42:44.950Z,190
2018-07-28T09:43:53.601Z,200
2018-07-28T09:45:02.258Z,205
2018-07-28T09:46:11.180Z,195
2018-07-28T09:47:19.835Z,185
2018-07-28T09:48:28.484Z,165
2018-07-28T09:49:37.143Z,150
2018-07-28T09:50:45.802Z,145
2018-07-28T09:51:54.450Z,140
2018-07-28T09:53:03.106Z,130
2018-07-28T09:54:11.758Z,125
2018-07-28T09:55:20.416Z,130
2018-07-28T09:56:29.070Z,140
2018-07-28T09:57:37.723Z,145
2018-07-28T09:58:46.375Z,150
2018-07-28T09:59:55.028Z,160
2018-07-28T10:01:03.682Z,160
2018-07-28T10:02:12.661Z,155
2018-07-28T10:03:21.316Z,155
2018-07-28T10:04:29.962Z,145
2018-07-28T10:05:39.028Z,135
2018-07-28T10:06:47.881Z,135
2018-07-28T10:07:56.535Z,135
2018-07-28T10:09:05.183Z,130
2018-07-28T10:10:13.842Z,130
2018-07-28T10:11:22.490Z,135
2018-07-28T10:12:31.412Z,140
2018-07-28T10:13:40.058Z,140
2018-07-28T10:14:48.714Z,135
2018-07-28T10:15:57.632Z,135
2018-07-28T10:17:06.290Z,130
2018-07-28T10:18:14.948Z,125
2018-07-28T10:19:23.854Z,120
2018-07-28T10:20:32.506Z,115
2018-07-28T10:21:41.156Z,115
2018-07-28T10:22:49.873Z,115
2018-07-28T10:23:58.458Z,115
2018-07-28T10:25:07.378Z,110
2018-07-28T10:26:16.026Z,100
2018-07-28T10:27:24.688Z,95
2018-07-28T10:28:33.879Z,90
2018-07-28T10:29:42.541Z,90
2018-07-28T10:30:51.185Z,90
2018-07-28T10:31:59.846Z,90
2018-07-28T10:33:08.496Z,90
2018-07-28T10:34:17.144Z,85
2018-07-28T10:35:25.792Z,70
2018-07-28T10:36:34.485Z,65
2018-07-28T10:37:43.103Z,65
2018-07-28T10:38:51.749Z,60
2018-07-28T10:40:00.409Z,60
2018-07-28T10:41:09.051Z,70
2018-07-28T10:42:17.715Z,85
2018-07-28T10:43:26.359Z,95
2018-07-28T10:44:35.276Z,105
2018-07-28T10:45:44.012Z,110
2018-07-28T10:46:53.312Z,120
2018-07-28T10:48:01.972Z,135
2018-07-28T10:49:10.615Z,150
2018-07-28T10:50:19.256Z,175
2018-07-28T10:51:27.909Z,195
2018-07-28T10:52:36.564Z,215
2018-07-28T10:53:45.221Z,235
2018-07-28T10:54:54.147Z,245
2018-07-28T10:56:02.794Z,255
2018-07-28T10:57:11.448Z,255
2018-07-28T10:58:20.644Z,260
2018-07-28T10:59:29.306Z,255
2018-07-28T11:00:37.949Z,250
2018-07-28T11:01:46.600Z,245
2018-07-28T11:02:55.247Z,240
2018-07-28T11:04:03.907Z,240
2018-07-28T11:05:12.560Z,240
2018-07-28T11:06:21.208Z,250
2018-07-28T11:07:29.864Z,255
2018-07-28T11:08:38.525Z,270
2018-07-28T11:09:47.175Z,275
2018-07-28T11:10:55.825Z,275
2018-07-28T11:12:04.480Z,280
2018-07-28T11:13:13.124Z,280
2018-07-28T11:14:21.788Z,285
2018-07-28T11:15:30.434Z,280
2018-07-28T11:16:39.091Z,285
2018-07-28T11:17:47.998Z,290
2018-07-28T11:18:56.705Z,300
2018-07-28T11:20:05.308Z,315
2018-07-28T11:21:13.958Z,330
2018-07-28T11:22:22.608Z,335
2018-07-28T11:23:31.267Z,350
2018-07-28T11:24:39.918Z,355
2018-07-28T11:25:48.588Z,365
2018-07-28T11:26:57.502Z,380
2018-07-28T11:28:06.159Z,385
2018-07-28T11:29:14.809Z,390
2018-07-28T11:30:23.465Z,395
2018-07-28T11:31:32.156Z,405
2018-07-28T11:32:40.768Z,400
2018-07-28T11:33:49.421Z,430
2018-07-28T11:34:58.080Z,440
2018-07-28T11:36:07.000Z,405
2018-07-28T11:37:15.644Z,385
2018-07-28T11:38:24.571Z,390
2018-07-28T11:39:33.224Z,380
2018-07-28T11:40:42.144Z,380
2018-07-28T11:41:50.797Z,365
2018-07-28T11:42:59.458Z,350
2018-07-28T11:44:08.379Z,350
2018-07-28T11:45:17.039Z,360
2018-07-28T11:46:25.690Z,355
2018-07-28T11:47:34.345Z,345
2018-07-28T11:48:42.997Z,335
2018-07-28T11:49:51.649Z,320
2018-07-28T11:51:00.308Z,325
2018-07-28T11:52:08.968Z,325
2018-07-28T11:53:17.618Z,330
2018-07-28T11:54:26.268Z,320
2018-07-28T11:55:35.217Z,320
2018-07-28T11:56:43.870Z,355
2018-07-28T11:57:52.523Z,355
2018-07-28T11:59:01.174Z,365
2018-07-28T12:00:09.830Z,395
2018-07-28T12:01:18.483Z,445
2018-07-28T12:02:27.408Z,380
2018-07-28T12:03:36.057Z,395
2018-07-28T12:04:44.711Z,345
2018-07-28T12:05:53.362Z,345
2018-07-28T12:07:02.025Z,330
2018-07-28T12:08:10.680Z,370
2018-07-28T12:09:19.330Z,335
2018-07-28T12:10:27.982Z,330
2018-07-28T12:11:36.639Z,290
2018-07-28T12:12:45.296Z,270
2018-07-28T12:13:53.944Z,250
2018-07-28T12:15:02.609Z,265
2018-07-28T12:16:11.518Z,340
2018-07-28T12:17:20.180Z,345
2018-07-28T12:18:29.333Z,355
2018-07-28T12:19:37.949Z,270
2018-07-28T12:20:46.599Z,285
2018-07-28T12:21:55.296Z,255
2018-07-28T12:23:04.176Z,230
2018-07-28T12:24:12.823Z,210
2018-07-28T12:25:21.479Z,205
2018-07-28T12:26:30.391Z,210
2018-07-28T12:27:39.054Z,240
2018-07-28T12:28:47.703Z,320
2018-07-28T12:29:56.361Z,360
2018-07-28T12:31:05.004Z,370
2018-07-28T12:32:13.665Z,355
2018-07-28T12:33:22.313Z,320
2018-07-28T12:34:31.025Z,305
2018-07-28T12:35:39.617Z,270
2018-07-28T12:36:48.278Z,235
2018-07-28T12:37:56.929Z,260
2018-07-28T12:39:05.584Z,205
2018-07-28T12:40:14.230Z,195
2018-07-28T12:41:22.887Z,165
2018-07-28T12:42:31.545Z,195
2018-07-28T12:43:40.200Z,205
2018-07-28T12:44:48.855Z,220
2018-07-28T12:45:57.499Z,215
2018-07-28T12:47:06.158Z,210
2018-07-28T12:48:14.811Z,235
2018-07-28T12:49:23.478Z,245
2018-07-28T12:50:32.391Z,275
2018-07-28T12:51:41.310Z,285
2018-07-28T12:52:49.960Z,280
2018-07-28T12:53:58.626Z,280
2018-07-28T12:55:07.541Z,265
2018-07-28T12:56:16.498Z,230
2018-07-28T12:57:25.482Z,235
2018-07-28T12:58:34.143Z,210
2018-07-28T12:59:42.800Z,175
2018-07-28T13:00:51.449Z,270
2018-07-28T13:02:00.101Z,255
2018-07-28T13:03:08.751Z,260
2018-07-28T13:04:17.413Z,290
2018-07-28T13:05:26.065Z,335
2018-07-28T13:06:34.724Z,295
2018-07-28T13:07:43.371Z,265
2018-07-28T13:08:52.036Z,260
2018-07-28T13:10:00.694Z,280
2018-07-28T13:11:09.616Z,330
2018-07-28T13:12:18.300Z,345
2018-07-28T13:13:26.924Z,330
2018-07-28T13:14:35.584Z,235
2018-07-28T13:15:44.242Z,285
2018-07-28T13:16:52.907Z,235
2018-07-28T13:18:01.674Z,205
2018-07-28T13:19:10.210Z,195
2018-07-28T13:20:18.862Z,190
2018-07-28T13:21:27.515Z,200
2018-07-28T13:22:36.183Z,180
2018-07-28T13:23:45.205Z,165
2018-07-28T13:24:53.752Z,170
2018-07-28T13:26:02.399Z,200
2018-07-28T13:27:11.326Z,235
2018-07-28T13:28:19.973Z,240
2018-07-28T13:29:28.636Z,235
2018-07-28T13:30:37.278Z,220
2018-07-28T13:31:45.938Z,210
2018-07-28T13:32:54.590Z,195
2018-07-28T13:34:03.247Z,250
2018-07-28T13:35:11.939Z,300
2018-07-28T13:36:20.557Z,320
2018-07-28T13:37:29.485Z,315
2018-07-28T13:38:38.136Z,315
2018-07-28T13:39:46.791Z,290
2018-07-28T13:40:55.437Z,240
2018-07-28T13:42:04.136Z,245
2018-07-28T13:43:12.750Z,250
2018-07-28T13:44:21.414Z,310
2018-07-28T13:45:30.054Z,300
2018-07-28T13:46:38.711Z,305
2018-07-28T13:47:47.387Z,335
2018-07-28T13:48:56.026Z,305
2018-07-28T13:50:04.673Z,275
2018-07-28T13:51:13.328Z,270
2018-07-28T13:52:22.253Z,260
2018-07-28T13:53:31.175Z,265
2018-07-28T13:54:39.827Z,270
2018-07-28T13:55:48.742Z,295
2018-07-28T13:56:57.391Z,350
2018-07-28T13:58:06.043Z,340
2018-07-28T13:59:14.739Z,320
2018-07-28T14:00:23.466Z,295
2018-07-28T14:01:32.016Z,260
2018-07-28T14:02:40.945Z,210
2018-07-28T14:03:49.608Z,185
2018-07-28T14:04:58.520Z,180
2018-07-28T14:06:08.276Z,200
2018-07-28T14:07:16.859Z,260
2018-07-28T14:08:25.521Z,255
2018-07-28T14:09:34.175Z,280
2018-07-28T14:10:42.829Z,205
2018-07-28T14:11:51.481Z,220
2018-07-28T14:13:00.136Z,175
2018-07-28T14:14:08.792Z,215
2018-07-28T14:15:17.857Z,215
2018-07-28T14:16:26.661Z,170
2018-07-28T14:17:35.311Z,200
2018-07-28T14:18:44.569Z,230
2018-07-28T14:19:53.185Z,190
2018-07-28T14:21:01.851Z,190
2018-07-28T14:22:10.504Z,195
2018-07-28T14:23:19.487Z,225
2018-07-28T14:24:28.077Z,270
2018-07-28T14:25:36.737Z,210
2018-07-28T14:26:45.386Z,245
2018-07-28T14:27:54.050Z,205
2018-07-28T14:29:02.957Z,235
2018-07-28T14:30:11.883Z,195
2018-07-28T14:31:20.540Z,205
2018-07-28T14:32:29.189Z,280
2018-07-28T14:33:37.844Z,320
2018-07-28T14:34:46.496Z,305
2018-07-28T14:35:55.154Z,310
2018-07-28T14:37:03.811Z,285
2018-07-28T14:38:12.466Z,265
2018-07-28T14:39:21.117Z,230
2018-07-28T14:40:29.775Z,210
2018-07-28T14:41:38.431Z,210
2018-07-28T14:42:47.088Z,215
2018-07-28T14:43:55.737Z,235
2018-07-28T14:45:04.662Z,260
2018-07-28T14:46:13.314Z,280
2018-07-28T14:47:21.968Z,270
2018-07-28T14:48:30.618Z,275
2018-07-28T14:49:39.274Z,280
2018-07-28T14:50:47.928Z,270
2018-07-28T14:51:56.585Z,265
2018-07-28T14:53:05.241Z,270
2018-07-28T14:54:14.155Z,250
2018-07-28T14:55:22.813Z,290
2018-07-28T14:56:31.737Z,305
2018-07-28T14:57:40.400Z,295
2018-07-28T14:58:49.048Z,275
2018-07-28T14:59:57.704Z,250
2018-07-28T15:01:06.365Z,235
2018-07-28T15:02:15.026Z,220
2018-07-28T15:03:23.676Z,185
2018-07-28T15:04:32.334Z,170
2018-07-28T15:05:40.987Z,180
2018-07-28T15:06:49.670Z,200
2018-07-28T15:07:58.865Z,160
2018-07-28T15:09:07.605Z,200
2018-07-28T15:10:16.549Z,170
2018-07-28T15:11:25.222Z,190
2018-07-28T15:12:33.863Z,190
2018-07-28T15:13:42.532Z,185
2018-07-28T15:14:51.177Z,200
2018-07-28T15:15:59.826Z,175
2018-07-28T15:17:08.488Z,170
2018-07-28T15:18:17.142Z,175
2018-07-28T15:19:25.799Z,185
2018-07-28T15:20:34.721Z,195
2018-07-28T15:21:43.705Z,195
2018-07-28T15:22:52.360Z,165
2018-07-28T15:24:01.334Z,140
2018-07-28T15:25:09.986Z,110
2018-07-28T15:26:18.644Z,80
2018-07-28T15:27:27.301Z,60
2018-07-28T15:28:35.961Z,55
2018-07-28T15:29:44.614Z,70
2018-07-28T15:30:53.261Z,85
2018-07-28T15:32:01.918Z,95
2018-07-28T15:33:10.570Z,95
2018-07-28T15:34:19.232Z,100
2018-07-28T15:35:27.882Z,100
2018-07-28T15:36:36.803Z,110
2018-07-28T15:37:45.456Z,115
2018-07-28T15:38:54.115Z,115
2018-07-28T15:40:03.025Z,110
2018-07-28T15:41:11.951Z,100
2018-07-28T15:42:20.597Z,95
2018-07-28T15:43:29.254Z,95
2018-07-28T15:44:37.905Z,90
2018-07-28T15:45:46.819Z,85
2018-07-28T15:46:55.466Z,85
2018-07-28T15:48:04.430Z,85
2018-07-28T15:49:13.043Z,90
2018-07-28T15:50:21.694Z,95
2018-07-28T15:51:30.344Z,95
2018-07-28T15:52:39.266Z,95
2018-07-28T15:53:47.910Z,90
2018-07-28T15:54:56.560Z,85
2018-07-28T15:56:05.576Z,80
2018-07-28T15:57:14.164Z,70
2018-07-28T15:58:22.818Z,65
2018-07-28T15:59:31.464Z,55
2018-07-28T16:00:40.114Z,50
2018-07-28T16:01:48.798Z,45
2018-07-28T16:02:57.415Z,40
2018-07-28T16:04:06.332Z,40
2018-07-28T16:05:14.981Z,40
2018-07-28T16:06:23.895Z,45
2018-07-28T16:07:32.804Z,45
2018-07-28T16:08:41.721Z,50